sensor_id;sensor_type;location;lat;lon;timestamp;pressure;altitude;pressure_sealevel;temperature;humidity
75013;BME280;63567;49.956;20.130;2023-06-22T00:00:17;97212.16;;;20.48;74.41
75013;BME280;63567;49.956;20.130;2023-06-22T00:02:42;97220.13;;;20.43;74.43
75013;BME280;63567;49.956;20.130;2023-06-22T00:05:07;97235.38;;;20.43;74.48
75013;BME280;63567;49.956;20.130;2023-06-22T00:07:32;97234.81;;;20.41;73.59
75013;BME280;63567;49.956;20.130;2023-06-22T00:09:58;97229.59;;;20.34;74.08
75013;BME280;63567;49.956;20.130;2023-06-22T00:12:23;97240.06;;;20.36;73.89
75013;BME280;63567;49.956;20.130;2023-06-22T00:14:48;97240.63;;;20.38;73.83
75013;BME280;63567;49.956;20.130;2023-06-22T00:17:13;97241.38;;;20.33;73.53
75013;BME280;63567;49.956;20.130;2023-06-22T00:19:39;97248.66;;;20.38;74.14
75013;BME280;63567;49.956;20.130;2023-06-22T00:22:05;97247.28;;;20.35;73.64
75013;BME280;63567;49.956;20.130;2023-06-22T00:24:30;97243.25;;;20.33;74.30
75013;BME280;63567;49.956;20.130;2023-06-22T00:26:56;97247.63;;;20.39;74.50
75013;BME280;63567;49.956;20.130;2023-06-22T00:29:21;97244.28;;;20.31;75.40
75013;BME280;63567;49.956;20.130;2023-06-22T00:31:46;97246.66;;;20.28;76.11
75013;BME280;63567;49.956;20.130;2023-06-22T00:34:11;97245.75;;;20.22;77.01
75013;BME280;63567;49.956;20.130;2023-06-22T00:36:37;97240.41;;;20.22;76.41
75013;BME280;63567;49.956;20.130;2023-06-22T00:39:02;97242.34;;;20.27;76.69
75013;BME280;63567;49.956;20.130;2023-06-22T00:41:28;97226.63;;;20.30;76.06
75013;BME280;63567;49.956;20.130;2023-06-22T00:43:54;97229.47;;;20.24;76.81
75013;BME280;63567;49.956;20.130;2023-06-22T00:46:20;97219.81;;;20.23;76.21
75013;BME280;63567;49.956;20.130;2023-06-22T00:48:46;97214.00;;;20.26;76.08
75013;BME280;63567;49.956;20.130;2023-06-22T00:51:11;97224.81;;;20.36;76.41
75013;BME280;63567;49.956;20.130;2023-06-22T00:53:37;97232.28;;;20.34;75.37
75013;BME280;63567;49.956;20.130;2023-06-22T00:56:03;97228.22;;;20.31;75.58
75013;BME280;63567;49.956;20.130;2023-06-22T00:58:29;97233.59;;;20.31;76.32
75013;BME280;63567;49.956;20.130;2023-06-22T01:00:55;97229.53;;;20.29;75.97
75013;BME280;63567;49.956;20.130;2023-06-22T01:03:20;97220.78;;;20.34;76.66
75013;BME280;63567;49.956;20.130;2023-06-22T01:05:46;97217.28;;;20.33;76.36
75013;BME280;63567;49.956;20.130;2023-06-22T01:08:28;97216.16;;;20.29;77.10
75013;BME280;63567;49.956;20.130;2023-06-22T01:11:09;97224.44;;;20.27;77.35
75013;BME280;63567;49.956;20.130;2023-06-22T01:13:58;97213.66;;;20.22;77.14
75013;BME280;63567;49.956;20.130;2023-06-22T01:16:30;97214.28;;;20.29;76.62
75013;BME280;63567;49.956;20.130;2023-06-22T01:21:38;97211.00;;;20.22;76.94
75013;BME280;63567;49.956;20.130;2023-06-22T01:24:26;97215.13;;;20.30;77.16
75013;BME280;63567;49.956;20.130;2023-06-22T01:27:17;97222.31;;;20.29;77.21
75013;BME280;63567;49.956;20.130;2023-06-22T01:29:50;97204.84;;;20.22;76.50
75013;BME280;63567;49.956;20.130;2023-06-22T01:32:16;97205.47;;;20.29;76.93
75013;BME280;63567;49.956;20.130;2023-06-22T01:34:43;97201.66;;;20.25;77.20
75013;BME280;63567;49.956;20.130;2023-06-22T01:37:09;97203.13;;;20.16;77.90
75013;BME280;63567;49.956;20.130;2023-06-22T01:39:34;97199.66;;;20.15;77.71
75013;BME280;63567;49.956;20.130;2023-06-22T01:42:00;97204.75;;;20.17;77.18
75013;BME280;63567;49.956;20.130;2023-06-22T01:44:26;97199.72;;;20.20;77.03
75013;BME280;63567;49.956;20.130;2023-06-22T01:46:52;97205.63;;;20.22;76.60
75013;BME280;63567;49.956;20.130;2023-06-22T01:49:17;97213.44;;;20.24;76.72
75013;BME280;63567;49.956;20.130;2023-06-22T01:51:43;97209.94;;;20.23;76.62
75013;BME280;63567;49.956;20.130;2023-06-22T01:54:08;97212.63;;;20.23;76.64
75013;BME280;63567;49.956;20.130;2023-06-22T01:56:34;97195.34;;;20.14;77.18
75013;BME280;63567;49.956;20.130;2023-06-22T01:59:13;97213.09;;;20.20;77.60
75013;BME280;63567;49.956;20.130;2023-06-22T02:01:57;97211.56;;;20.07;78.68
75013;BME280;63567;49.956;20.130;2023-06-22T02:04:29;97219.75;;;20.01;79.49
75013;BME280;63567;49.956;20.130;2023-06-22T02:06:58;97218.78;;;20.07;78.65
75013;BME280;63567;49.956;20.130;2023-06-22T02:09:28;97230.63;;;20.11;77.84
75013;BME280;63567;49.956;20.130;2023-06-22T02:11:55;97235.75;;;20.13;77.70
75013;BME280;63567;49.956;20.130;2023-06-22T02:14:22;97238.16;;;20.14;77.35
75013;BME280;63567;49.956;20.130;2023-06-22T02:16:48;97250.72;;;20.14;77.48
75013;BME280;63567;49.956;20.130;2023-06-22T02:19:14;97238.16;;;20.14;77.62
75013;BME280;63567;49.956;20.130;2023-06-22T02:21:40;97215.63;;;20.10;78.10
75013;BME280;63567;49.956;20.130;2023-06-22T02:24:06;97232.78;;;20.14;78.20
75013;BME280;63567;49.956;20.130;2023-06-22T02:26:32;97223.91;;;20.08;78.46
75013;BME280;63567;49.956;20.130;2023-06-22T02:28:57;97230.13;;;20.14;78.59
75013;BME280;63567;49.956;20.130;2023-06-22T02:31:23;97229.81;;;20.10;78.78
75013;BME280;63567;49.956;20.130;2023-06-22T02:33:58;97239.22;;;20.13;79.25
75013;BME280;63567;49.956;20.130;2023-06-22T02:36:25;97231.44;;;20.11;79.10
75013;BME280;63567;49.956;20.130;2023-06-22T02:38:51;97234.34;;;20.10;79.50
75013;BME280;63567;49.956;20.130;2023-06-22T02:41:17;97227.63;;;20.07;79.79
75013;BME280;63567;49.956;20.130;2023-06-22T02:43:44;97226.00;;;20.06;79.75
75013;BME280;63567;49.956;20.130;2023-06-22T02:46:10;97222.44;;;20.01;79.56
75013;BME280;63567;49.956;20.130;2023-06-22T02:48:36;97236.88;;;20.00;80.51
75013;BME280;63567;49.956;20.130;2023-06-22T02:51:01;97240.59;;;19.99;79.53
75013;BME280;63567;49.956;20.130;2023-06-22T02:53:26;97247.00;;;19.98;79.68
75013;BME280;63567;49.956;20.130;2023-06-22T02:55:51;97227.88;;;19.89;79.36
75013;BME280;63567;49.956;20.130;2023-06-22T02:58:17;97244.78;;;19.95;79.24
75013;BME280;63567;49.956;20.130;2023-06-22T03:00:42;97238.88;;;19.93;79.41
75013;BME280;63567;49.956;20.130;2023-06-22T03:03:07;97238.56;;;19.89;79.23
75013;BME280;63567;49.956;20.130;2023-06-22T03:05:32;97232.81;;;19.80;79.21
75013;BME280;63567;49.956;20.130;2023-06-22T03:08:00;97244.66;;;19.84;79.15
75013;BME280;63567;49.956;20.130;2023-06-22T03:10:26;97239.69;;;19.76;78.97
75013;BME280;63567;49.956;20.130;2023-06-22T03:12:51;97252.91;;;19.83;79.59
75013;BME280;63567;49.956;20.130;2023-06-22T03:15:16;97248.19;;;19.73;79.68
75013;BME280;63567;49.956;20.130;2023-06-22T03:17:42;97257.34;;;19.77;79.98
75013;BME280;63567;49.956;20.130;2023-06-22T03:20:09;97262.97;;;19.76;79.66
75013;BME280;63567;49.956;20.130;2023-06-22T03:22:39;97253.44;;;19.68;79.46
75013;BME280;63567;49.956;20.130;2023-06-22T03:25:05;97261.81;;;19.72;79.69
75013;BME280;63567;49.956;20.130;2023-06-22T03:27:36;97265.53;;;19.70;79.69
75013;BME280;63567;49.956;20.130;2023-06-22T03:30:02;97265.19;;;19.67;80.02
75013;BME280;63567;49.956;20.130;2023-06-22T03:32:27;97259.72;;;19.62;79.94
75013;BME280;63567;49.956;20.130;2023-06-22T03:34:53;97272.88;;;19.63;80.06
75013;BME280;63567;49.956;20.130;2023-06-22T03:37:18;97267.09;;;19.55;80.00
75013;BME280;63567;49.956;20.130;2023-06-22T03:39:43;97273.09;;;19.62;80.17
75013;BME280;63567;49.956;20.130;2023-06-22T03:42:09;97267.97;;;19.60;79.72
75013;BME280;63567;49.956;20.130;2023-06-22T03:44:35;97272.78;;;19.58;80.29
75013;BME280;63567;49.956;20.130;2023-06-22T03:47:01;97280.47;;;19.55;80.35
75013;BME280;63567;49.956;20.130;2023-06-22T03:49:27;97275.34;;;19.53;81.05
75013;BME280;63567;49.956;20.130;2023-06-22T03:51:52;97269.91;;;19.48;80.55
75013;BME280;63567;49.956;20.130;2023-06-22T03:54:17;97281.50;;;19.54;80.54
75013;BME280;63567;49.956;20.130;2023-06-22T03:56:43;97285.69;;;19.49;80.47
75013;BME280;63567;49.956;20.130;2023-06-22T03:59:08;97268.41;;;19.40;80.52
75013;BME280;63567;49.956;20.130;2023-06-22T04:01:33;97284.31;;;19.47;79.84
75013;BME280;63567;49.956;20.130;2023-06-22T04:03:58;97284.31;;;19.47;79.66
75013;BME280;63567;49.956;20.130;2023-06-22T04:06:24;97282.69;;;19.46;81.03
75013;BME280;63567;49.956;20.130;2023-06-22T04:08:49;97289.91;;;19.45;80.95
75013;BME280;63567;49.956;20.130;2023-06-22T04:11:16;97298.97;;;19.44;80.51
75013;BME280;63567;49.956;20.130;2023-06-22T04:13:42;97303.97;;;19.41;80.53
75013;BME280;63567;49.956;20.130;2023-06-22T04:16:08;97300.25;;;19.42;80.16
75013;BME280;63567;49.956;20.130;2023-06-22T04:18:33;97299.19;;;19.43;80.59
75013;BME280;63567;49.956;20.130;2023-06-22T04:20:58;97300.50;;;19.40;80.50
75013;BME280;63567;49.956;20.130;2023-06-22T04:23:24;97297.50;;;19.37;81.00
75013;BME280;63567;49.956;20.130;2023-06-22T04:25:49;97300.50;;;19.40;81.12
75013;BME280;63567;49.956;20.130;2023-06-22T04:28:14;97302.28;;;19.35;80.99
75013;BME280;63567;49.956;20.130;2023-06-22T04:30:39;97306.91;;;19.39;80.58
75013;BME280;63567;49.956;20.130;2023-06-22T04:33:14;97305.84;;;19.40;80.96
75013;BME280;63567;49.956;20.130;2023-06-22T04:35:40;97310.94;;;19.42;81.32
75013;BME280;63567;49.956;20.130;2023-06-22T04:38:08;97315.00;;;19.44;81.42
75013;BME280;63567;49.956;20.130;2023-06-22T04:40:34;97313.69;;;19.47;82.26
75013;BME280;63567;49.956;20.130;2023-06-22T04:42:59;97317.22;;;19.47;82.68
75013;BME280;63567;49.956;20.130;2023-06-22T04:45:27;97315.91;;;19.50;82.44
75013;BME280;63567;49.956;20.130;2023-06-22T04:47:53;97319.75;;;19.54;82.56
75013;BME280;63567;49.956;20.130;2023-06-22T04:50:18;97310.56;;;19.50;82.57
75013;BME280;63567;49.956;20.130;2023-06-22T04:52:46;97330.75;;;19.58;82.10
75013;BME280;63567;49.956;20.130;2023-06-22T04:55:11;97322.16;;;19.56;83.08
75013;BME280;63567;49.956;20.130;2023-06-22T04:57:37;97329.44;;;19.60;83.63
75013;BME280;63567;49.956;20.130;2023-06-22T05:00:05;97340.13;;;19.60;83.59
75013;BME280;63567;49.956;20.130;2023-06-22T05:02:40;97332.00;;;19.67;83.10
75013;BME280;63567;49.956;20.130;2023-06-22T05:05:06;97325.50;;;19.63;83.68
75013;BME280;63567;49.956;20.130;2023-06-22T05:07:32;97341.03;;;19.78;83.35
75013;BME280;63567;49.956;20.130;2023-06-22T05:09:57;97335.22;;;19.81;83.63
75013;BME280;63567;49.956;20.130;2023-06-22T05:12:22;97330.22;;;19.84;83.96
75013;BME280;63567;49.956;20.130;2023-06-22T05:14:47;97328.13;;;19.86;83.56
75013;BME280;63567;49.956;20.130;2023-06-22T05:17:13;97320.63;;;19.88;83.75
75013;BME280;63567;49.956;20.130;2023-06-22T05:19:39;97333.88;;;19.95;83.48
75013;BME280;63567;49.956;20.130;2023-06-22T05:22:04;97337.44;;;20.01;83.03
75013;BME280;63567;49.956;20.130;2023-06-22T05:24:31;97346.09;;;20.08;83.27
75013;BME280;63567;49.956;20.130;2023-06-22T05:26:56;97351.00;;;20.11;83.48
75013;BME280;63567;49.956;20.130;2023-06-22T05:29:22;97352.38;;;20.14;83.27
75013;BME280;63567;49.956;20.130;2023-06-22T05:31:48;97341.66;;;20.14;83.18
75013;BME280;63567;49.956;20.130;2023-06-22T05:34:14;97334.56;;;20.19;82.39
75013;BME280;63567;49.956;20.130;2023-06-22T05:36:39;97348.91;;;20.30;82.33
75013;BME280;63567;49.956;20.130;2023-06-22T05:39:12;97353.94;;;20.43;82.10
75013;BME280;63567;49.956;20.130;2023-06-22T05:41:38;97344.38;;;20.47;81.53
75013;BME280;63567;49.956;20.130;2023-06-22T05:44:03;97348.91;;;20.64;81.39
75013;BME280;63567;49.956;20.130;2023-06-22T05:46:29;97347.44;;;20.73;81.43
75013;BME280;63567;49.956;20.130;2023-06-22T05:48:54;97348.91;;;20.81;80.96
75013;BME280;63567;49.956;20.130;2023-06-22T05:51:19;97357.50;;;20.83;81.08
75013;BME280;63567;49.956;20.130;2023-06-22T05:53:44;97359.44;;;20.87;81.11
75013;BME280;63567;49.956;20.130;2023-06-22T05:56:14;97357.31;;;20.89;81.56
75013;BME280;63567;49.956;20.130;2023-06-22T05:58:39;97345.06;;;20.93;80.95
75013;BME280;63567;49.956;20.130;2023-06-22T06:01:05;97360.72;;;21.02;81.57
75013;BME280;63567;49.956;20.130;2023-06-22T06:03:30;97352.50;;;21.08;80.98
75013;BME280;63567;49.956;20.130;2023-06-22T06:05:55;97357.91;;;21.13;81.17
75013;BME280;63567;49.956;20.130;2023-06-22T06:08:21;97366.84;;;21.19;81.02
75013;BME280;63567;49.956;20.130;2023-06-22T06:10:46;97369.34;;;21.26;80.34
75013;BME280;63567;49.956;20.130;2023-06-22T06:13:11;97366.09;;;21.24;80.62
75013;BME280;63567;49.956;20.130;2023-06-22T06:15:37;97372.97;;;21.37;80.50
75013;BME280;63567;49.956;20.130;2023-06-22T06:18:02;97379.53;;;21.46;80.65
75013;BME280;63567;49.956;20.130;2023-06-22T06:20:30;97378.78;;;21.50;80.99
75013;BME280;63567;49.956;20.130;2023-06-22T06:22:56;97377.22;;;21.54;80.88
75013;BME280;63567;49.956;20.130;2023-06-22T06:25:21;97375.66;;;21.59;80.68
75013;BME280;63567;49.956;20.130;2023-06-22T06:27:48;97374.53;;;21.54;81.20
75013;BME280;63567;49.956;20.130;2023-06-22T06:30:15;97380.03;;;21.65;81.13
75013;BME280;63567;49.956;20.130;2023-06-22T06:32:41;97387.63;;;21.73;80.50
75013;BME280;63567;49.956;20.130;2023-06-22T06:35:07;97387.47;;;21.85;81.03
75013;BME280;63567;49.956;20.130;2023-06-22T06:37:37;97389.44;;;21.94;80.72
75013;BME280;63567;49.956;20.130;2023-06-22T06:40:04;97385.53;;;22.02;80.77
75013;BME280;63567;49.956;20.130;2023-06-22T06:42:35;97383.22;;;22.16;80.30
75013;BME280;63567;49.956;20.130;2023-06-22T06:45:02;97392.22;;;22.27;80.09
75013;BME280;63567;49.956;20.130;2023-06-22T06:47:28;97400.13;;;22.39;79.53
75013;BME280;63567;49.956;20.130;2023-06-22T06:49:53;97387.84;;;22.48;79.50
75013;BME280;63567;49.956;20.130;2023-06-22T06:52:18;97390.06;;;22.56;78.69
75013;BME280;63567;49.956;20.130;2023-06-22T06:54:45;97395.13;;;22.52;78.53
75013;BME280;63567;49.956;20.130;2023-06-22T06:57:10;97387.13;;;22.58;77.90
75013;BME280;63567;49.956;20.130;2023-06-22T06:59:38;97388.03;;;22.73;77.92
75013;BME280;63567;49.956;20.130;2023-06-22T07:02:04;97389.97;;;22.83;78.01
75013;BME280;63567;49.956;20.130;2023-06-22T07:04:29;97381.13;;;22.88;77.31
75013;BME280;63567;49.956;20.130;2023-06-22T07:06:55;97380.41;;;22.97;76.99
75013;BME280;63567;49.956;20.130;2023-06-22T07:09:20;97388.56;;;23.08;76.59
75013;BME280;63567;49.956;20.130;2023-06-22T07:11:45;97392.63;;;23.15;76.88
75013;BME280;63567;49.956;20.130;2023-06-22T07:14:10;97401.28;;;23.23;76.64
75013;BME280;63567;49.956;20.130;2023-06-22T07:16:36;97397.28;;;23.35;76.29
75013;BME280;63567;49.956;20.130;2023-06-22T07:19:01;97400.03;;;23.41;75.73
75013;BME280;63567;49.956;20.130;2023-06-22T07:21:26;97391.72;;;23.47;75.36
75013;BME280;63567;49.956;20.130;2023-06-22T07:23:51;97382.84;;;23.47;75.09
75013;BME280;63567;49.956;20.130;2023-06-22T07:26:17;97393.13;;;23.60;74.76
75013;BME280;63567;49.956;20.130;2023-06-22T07:28:42;97393.69;;;23.67;74.87
75013;BME280;63567;49.956;20.130;2023-06-22T07:31:07;97389.69;;;23.75;74.87
75013;BME280;63567;49.956;20.130;2023-06-22T07:33:33;97390.25;;;23.87;74.43
75013;BME280;63567;49.956;20.130;2023-06-22T07:35:58;97386.25;;;23.95;73.74
75013;BME280;63567;49.956;20.130;2023-06-22T07:38:23;97386.53;;;24.04;73.50
75013;BME280;63567;49.956;20.130;2023-06-22T07:40:49;97377.94;;;24.07;73.61
75013;BME280;63567;49.956;20.130;2023-06-22T07:43:15;97384.97;;;24.23;73.15
75013;BME280;63567;49.956;20.130;2023-06-22T07:45:48;97380.91;;;24.31;73.05
75013;BME280;63567;49.956;20.130;2023-06-22T07:48:17;97375.25;;;24.37;73.14
75013;BME280;63567;49.956;20.130;2023-06-22T07:50:42;97366.66;;;24.46;72.83
75013;BME280;63567;49.956;20.130;2023-06-22T07:53:07;97362.91;;;24.47;72.11
75013;BME280;63567;49.956;20.130;2023-06-22T07:55:32;97375.56;;;24.56;72.03
75013;BME280;63567;49.956;20.130;2023-06-22T07:57:58;97372.88;;;24.62;71.66
75013;BME280;63567;49.956;20.130;2023-06-22T08:00:23;97376.91;;;24.69;71.68
75013;BME280;63567;49.956;20.130;2023-06-22T08:02:48;97376.91;;;24.74;71.21
75013;BME280;63567;49.956;20.130;2023-06-22T08:05:15;97372.59;;;24.78;71.18
75013;BME280;63567;49.956;20.130;2023-06-22T08:07:40;97389.56;;;24.84;70.93
75013;BME280;63567;49.956;20.130;2023-06-22T08:10:08;97393.59;;;24.92;70.67
75013;BME280;63567;49.956;20.130;2023-06-22T08:12:35;97398.44;;;24.95;70.34
75013;BME280;63567;49.956;20.130;2023-06-22T08:15:00;97386.56;;;24.96;70.29
75013;BME280;63567;49.956;20.130;2023-06-22T08:17:26;97398.97;;;25.02;69.98
75013;BME280;63567;49.956;20.130;2023-06-22T08:19:51;97390.31;;;25.10;69.92
75013;BME280;63567;49.956;20.130;2023-06-22T08:22:16;97404.34;;;25.28;70.39
75013;BME280;63567;49.956;20.130;2023-06-22T08:24:42;97407.28;;;25.26;69.63
75013;BME280;63567;49.956;20.130;2023-06-22T08:27:07;97409.47;;;25.29;68.93
75013;BME280;63567;49.956;20.130;2023-06-22T08:29:41;97412.91;;;25.45;69.58
75013;BME280;63567;49.956;20.130;2023-06-22T08:32:10;97402.88;;;25.56;68.64
75013;BME280;63567;49.956;20.130;2023-06-22T08:34:36;97399.28;;;25.76;69.07
75013;BME280;63567;49.956;20.130;2023-06-22T08:37:01;97415.41;;;26.01;68.96
75013;BME280;63567;49.956;20.130;2023-06-22T08:39:31;97409.91;;;26.17;68.64
75013;BME280;63567;49.956;20.130;2023-06-22T08:41:57;97407.19;;;26.22;66.82
75013;BME280;63567;49.956;20.130;2023-06-22T08:44:22;97406.34;;;26.27;67.18
75013;BME280;63567;49.956;20.130;2023-06-22T08:46:47;97415.19;;;26.37;66.76
75013;BME280;63567;49.956;20.130;2023-06-22T08:49:12;97404.28;;;26.48;66.34
75013;BME280;63567;49.956;20.130;2023-06-22T08:51:38;97403.44;;;26.57;66.09
75013;BME280;63567;49.956;20.130;2023-06-22T08:54:03;97401.47;;;26.68;65.94
75013;BME280;63567;49.956;20.130;2023-06-22T08:56:28;97411.09;;;26.79;66.27
75013;BME280;63567;49.956;20.130;2023-06-22T08:58:54;97415.03;;;26.92;64.83
75013;BME280;63567;49.956;20.130;2023-06-22T09:01:19;97410.56;;;27.07;65.57
75013;BME280;63567;49.956;20.130;2023-06-22T09:03:44;97416.91;;;27.26;65.52
75013;BME280;63567;49.956;20.130;2023-06-22T09:06:09;97402.16;;;27.37;64.26
75013;BME280;63567;49.956;20.130;2023-06-22T09:08:36;97410.25;;;27.61;64.06
75013;BME280;63567;49.956;20.130;2023-06-22T09:11:01;97410.00;;;27.82;63.66
75013;BME280;63567;49.956;20.130;2023-06-22T09:13:29;97418.53;;;27.94;65.17
75013;BME280;63567;49.956;20.130;2023-06-22T09:15:55;97417.38;;;28.00;62.83
75013;BME280;63567;49.956;20.130;2023-06-22T09:18:20;97412.84;;;27.96;61.13
75013;BME280;63567;49.956;20.130;2023-06-22T09:20:45;97418.03;;;27.92;60.57
75013;BME280;63567;49.956;20.130;2023-06-22T09:23:11;97415.81;;;27.94;60.98
75013;BME280;63567;49.956;20.130;2023-06-22T09:25:36;97410.03;;;28.01;59.74
75013;BME280;63567;49.956;20.130;2023-06-22T09:28:01;97402.44;;;28.03;59.18
75013;BME280;63567;49.956;20.130;2023-06-22T09:30:27;97399.00;;;28.16;60.45
75013;BME280;63567;49.956;20.130;2023-06-22T09:32:52;97412.25;;;28.37;59.70
75013;BME280;63567;49.956;20.130;2023-06-22T09:35:17;97413.41;;;28.50;59.24
75013;BME280;63567;49.956;20.130;2023-06-22T09:37:42;97413.38;;;28.68;59.76
75013;BME280;63567;49.956;20.130;2023-06-22T09:40:08;97405.88;;;28.79;60.75
75013;BME280;63567;49.956;20.130;2023-06-22T09:42:35;97403.91;;;28.99;59.87
75013;BME280;63567;49.956;20.130;2023-06-22T09:45:01;97416.03;;;29.20;58.33
75013;BME280;63567;49.956;20.130;2023-06-22T09:47:27;97412.25;;;29.35;56.95
75013;BME280;63567;49.956;20.130;2023-06-22T09:49:52;97410.63;;;29.48;58.86
75013;BME280;63567;49.956;20.130;2023-06-22T09:52:18;97411.91;;;29.64;56.71
75013;BME280;63567;49.956;20.130;2023-06-22T09:54:43;97419.06;;;29.88;57.12
75013;BME280;63567;49.956;20.130;2023-06-22T09:57:08;97410.50;;;30.08;57.53
75013;BME280;63567;49.956;20.130;2023-06-22T09:59:33;97425.81;;;30.27;57.90
75013;BME280;63567;49.956;20.130;2023-06-22T10:01:59;97416.19;;;30.35;54.36
75013;BME280;63567;49.956;20.130;2023-06-22T10:04:24;97417.09;;;30.53;55.94
75013;BME280;63567;49.956;20.130;2023-06-22T10:06:50;97416.44;;;30.69;55.84
75013;BME280;63567;49.956;20.130;2023-06-22T10:09:16;97406.78;;;30.86;55.17
75013;BME280;63567;49.956;20.130;2023-06-22T10:11:41;97408.66;;;30.99;53.35
75013;BME280;63567;49.956;20.130;2023-06-22T10:14:06;97408.69;;;31.08;56.02
75013;BME280;63567;49.956;20.130;2023-06-22T10:16:31;97413.53;;;31.20;52.24
75013;BME280;63567;49.956;20.130;2023-06-22T10:18:57;97412.78;;;31.28;53.21
75013;BME280;63567;49.956;20.130;2023-06-22T10:21:22;97405.13;;;31.39;52.46
75013;BME280;63567;49.956;20.130;2023-06-22T10:23:48;97407.22;;;31.42;52.12
75013;BME280;63567;49.956;20.130;2023-06-22T10:26:13;97398.78;;;31.52;52.21
75013;BME280;63567;49.956;20.130;2023-06-22T10:28:38;97398.69;;;31.75;51.05
75013;BME280;63567;49.956;20.130;2023-06-22T10:31:03;97406.56;;;31.85;49.25
75013;BME280;63567;49.956;20.130;2023-06-22T10:33:29;97404.03;;;31.97;47.83
75013;BME280;63567;49.956;20.130;2023-06-22T10:35:54;97399.59;;;32.10;48.13
75013;BME280;63567;49.956;20.130;2023-06-22T10:38:20;97401.00;;;32.33;47.09
75013;BME280;63567;49.956;20.130;2023-06-22T10:40:45;97388.00;;;32.48;46.63
75013;BME280;63567;49.956;20.130;2023-06-22T10:43:10;97407.59;;;32.76;46.44
75013;BME280;63567;49.956;20.130;2023-06-22T10:45:36;97404.34;;;32.91;47.11
75013;BME280;63567;49.956;20.130;2023-06-22T10:48:01;97401.59;;;33.00;46.73
75013;BME280;63567;49.956;20.130;2023-06-22T10:50:26;97391.91;;;33.20;46.43
75013;BME280;63567;49.956;20.130;2023-06-22T10:52:52;97388.13;;;33.42;46.83
75013;BME280;63567;49.956;20.130;2023-06-22T10:55:17;97386.41;;;33.59;44.87
75013;BME280;63567;49.956;20.130;2023-06-22T10:57:43;97385.22;;;33.77;43.53
75013;BME280;63567;49.956;20.130;2023-06-22T11:00:10;97384.63;;;33.92;43.54
75013;BME280;63567;49.956;20.130;2023-06-22T11:02:36;97379.19;;;34.13;43.38
75013;BME280;63567;49.956;20.130;2023-06-22T11:05:01;97379.72;;;34.28;41.94
75013;BME280;63567;49.956;20.130;2023-06-22T11:07:28;97383.44;;;34.44;41.08
75013;BME280;63567;49.956;20.130;2023-06-22T11:09:54;97382.97;;;34.63;41.18
75013;BME280;63567;49.956;20.130;2023-06-22T11:12:19;97377.31;;;34.81;41.01
75013;BME280;63567;49.956;20.130;2023-06-22T11:14:44;97367.66;;;35.08;39.71
75013;BME280;63567;49.956;20.130;2023-06-22T11:17:10;97370.91;;;35.22;39.19
75013;BME280;63567;49.956;20.130;2023-06-22T11:19:35;97371.25;;;35.45;39.48
75013;BME280;63567;49.956;20.130;2023-06-22T11:22:01;97370.09;;;35.71;40.40
75013;BME280;63567;49.956;20.130;2023-06-22T11:24:26;97372.59;;;35.88;38.95
75013;BME280;63567;49.956;20.130;2023-06-22T11:26:52;97366.31;;;35.88;37.69
75013;BME280;63567;49.956;20.130;2023-06-22T11:29:17;97367.44;;;35.87;37.62
75013;BME280;63567;49.956;20.130;2023-06-22T11:31:42;97367.09;;;36.01;37.66
75013;BME280;63567;49.956;20.130;2023-06-22T11:34:08;97349.81;;;36.00;36.82
75013;BME280;63567;49.956;20.130;2023-06-22T11:36:34;97353.81;;;36.03;36.57
75013;BME280;63567;49.956;20.130;2023-06-22T11:39:00;97348.19;;;36.11;36.78
75013;BME280;63567;49.956;20.130;2023-06-22T11:41:26;97355.78;;;36.30;36.77
75013;BME280;63567;49.956;20.130;2023-06-22T11:43:51;97358.00;;;36.53;37.27
75013;BME280;63567;49.956;20.130;2023-06-22T11:46:16;97346.66;;;36.54;37.11
75013;BME280;63567;49.956;20.130;2023-06-22T11:48:42;97360.34;;;36.67;35.97
75013;BME280;63567;49.956;20.130;2023-06-22T11:51:07;97362.22;;;36.78;36.24
75013;BME280;63567;49.956;20.130;2023-06-22T11:53:33;97350.34;;;36.90;35.59
75013;BME280;63567;49.956;20.130;2023-06-22T11:55:59;97350.72;;;37.05;34.61
75013;BME280;63567;49.956;20.130;2023-06-22T11:58:25;97349.16;;;37.19;33.84
75013;BME280;63567;49.956;20.130;2023-06-22T12:00:50;97343.41;;;37.09;34.44
75013;BME280;63567;49.956;20.130;2023-06-22T12:03:17;97335.31;;;37.00;34.06
75013;BME280;63567;49.956;20.130;2023-06-22T12:05:42;97342.78;;;37.15;33.71
75013;BME280;63567;49.956;20.130;2023-06-22T12:08:07;97325.81;;;37.29;34.12
75013;BME280;63567;49.956;20.130;2023-06-22T12:10:33;97326.94;;;37.44;34.39
75013;BME280;63567;49.956;20.130;2023-06-22T12:12:59;97335.09;;;37.40;33.83
75013;BME280;63567;49.956;20.130;2023-06-22T12:15:25;97341.41;;;37.41;33.63
75013;BME280;63567;49.956;20.130;2023-06-22T12:17:51;97338.22;;;37.39;33.38
75013;BME280;63567;49.956;20.130;2023-06-22T12:20:16;97345.22;;;37.36;34.12
75013;BME280;63567;49.956;20.130;2023-06-22T12:22:41;97337.50;;;37.42;33.63
75013;BME280;63567;49.956;20.130;2023-06-22T12:25:10;97331.03;;;37.34;32.54
75013;BME280;63567;49.956;20.130;2023-06-22T12:27:36;97330.50;;;37.45;32.42
75013;BME280;63567;49.956;20.130;2023-06-22T12:30:02;97336.72;;;37.41;33.21
75013;BME280;63567;49.956;20.130;2023-06-22T12:32:27;97326.16;;;37.28;33.46
75013;BME280;63567;49.956;20.130;2023-06-22T12:34:53;97329.94;;;37.19;33.62
75013;BME280;63567;49.956;20.130;2023-06-22T12:37:18;97339.50;;;37.10;34.00
75013;BME280;63567;49.956;20.130;2023-06-22T12:39:44;97335.66;;;36.98;33.02
75013;BME280;63567;49.956;20.130;2023-06-22T12:42:09;97329.53;;;36.89;32.57
75013;BME280;63567;49.956;20.130;2023-06-22T12:44:37;97333.72;;;36.83;33.87
75013;BME280;63567;49.956;20.130;2023-06-22T12:47:03;97330.06;;;36.95;33.45